Time;durP1;ratioP1;P1;durP2;ratioP2;P2;SDS_P1;SDS_P2;PMS_P1;PMS_P2;Temp;Humidity;BMP_temperature;BMP_pressure;BME280_temperature;BME280_humidity;BME280_pressure;Samples;Min_cycle;Max_cycle;Signal;HPM_P1;HPM_P2
2023/04/09 00:02:15;;;;;;;1.05;0.80;;;18.70;70.50;;;;;;5032516;28;20022;-70
2023/04/09 00:04:40;;;;;;;1.25;0.52;;;18.70;70.50;;;;;;5015305;28;20037;-69
2023/04/09 00:07:06;;;;;;;0.55;0.52;;;18.70;71.50;;;;;;5032915;28;20044;-70
2023/04/09 00:09:31;;;;;;;0.50;0.50;;;18.70;70.50;;;;;;5033072;28;20029;-70
2023/04/09 00:11:58;;;;;;;1.08;0.65;;;18.70;70.60;;;;;;5015064;28;20029;-70
2023/04/09 00:14:23;;;;;;;0.85;0.55;;;18.70;70.70;;;;;;5032719;28;20029;-70
2023/04/09 00:16:49;;;;;;;0.98;0.88;;;18.70;70.70;;;;;;5031168;28;20179;-70
2023/04/09 00:19:15;;;;;;;0.77;0.60;;;18.70;70.90;;;;;;5031500;28;20057;-70
2023/04/09 00:21:41;;;;;;;0.57;0.57;;;18.60;70.70;;;;;;5032547;28;20030;-70
2023/04/09 00:24:07;;;;;;;1.90;0.60;;;18.60;70.80;;;;;;5032618;28;20022;-70
2023/04/09 00:26:33;;;;;;;1.17;0.70;;;18.60;70.80;;;;;;5032535;28;20028;-70
2023/04/09 00:28:58;;;;;;;1.30;0.70;;;18.60;70.90;;;;;;5032503;28;20029;-70
2023/04/09 00:31:24;;;;;;;0.80;0.60;;;18.60;70.90;;;;;;5032629;28;20045;-70
2023/04/09 00:33:50;;;;;;;0.60;0.60;;;18.60;71.00;;;;;;5032652;28;20104;-70
2023/04/09 00:36:15;;;;;;;2.00;0.65;;;18.60;70.90;;;;;;5032491;28;20036;-70
2023/04/09 00:38:41;;;;;;;1.25;0.40;;;18.60;71.10;;;;;;5031275;28;20029;-70
2023/04/09 00:41:07;;;;;;;0.70;0.68;;;18.60;71.00;;;;;;5032540;28;20017;-70
2023/04/09 00:43:32;;;;;;;1.58;0.60;;;18.60;71.00;;;;;;5030962;28;20026;-70
2023/04/09 00:45:58;;;;;;;1.38;0.60;;;18.50;71.00;;;;;;5032342;28;20050;-70
2023/04/09 00:48:24;;;;;;;0.52;0.52;;;18.60;71.20;;;;;;5014906;28;20021;-70
2023/04/09 00:50:50;;;;;;;2.22;0.65;;;18.50;71.10;;;;;;5014813;28;20040;-70
2023/04/09 00:53:15;;;;;;;2.30;0.60;;;18.50;71.20;;;;;;5032275;28;20577;-70
2023/04/09 00:55:41;;;;;;;1.88;0.73;;;18.50;71.30;;;;;;5030923;28;20033;-70
2023/04/09 00:58:08;;;;;;;0.88;0.70;;;18.50;71.20;;;;;;5031014;28;20093;-70
2023/04/09 01:00:34;;;;;;;1.13;0.70;;;18.50;71.30;;;;;;5032242;28;20045;-70
2023/04/09 01:03:00;;;;;;;0.55;0.55;;;18.50;71.20;;;;;;5032443;28;20060;-70
2023/04/09 01:05:36;;;;;;;3.70;0.75;;;18.50;71.30;;;;;;5030968;28;20520;-70
2023/04/09 01:08:25;;;;;;;1.30;0.80;;;18.50;71.30;;;;;;5031034;28;20049;-70
2023/04/09 01:11:09;;;;;;;2.20;0.82;;;18.50;71.40;;;;;;5049763;28;20041;-70
2023/04/09 01:13:46;;;;;;;0.90;0.70;;;18.50;71.40;;;;;;5033766;28;20032;-70
2023/04/09 01:16:12;;;;;;;0.70;0.70;;;18.40;71.50;;;;;;5053692;28;20483;-69
2023/04/09 01:19:09;;;;;;;0.70;0.70;;;18.40;71.40;;;;;;5036851;28;20025;-70
2023/04/09 01:21:34;;;;;;;1.50;0.80;;;18.40;71.40;;;;;;5053477;28;20029;-70
2023/04/09 01:24:18;;;;;;;0.73;0.70;;;18.40;71.40;;;;;;5036777;28;20116;-70
2023/04/09 01:27:02;;;;;;;1.23;0.50;;;18.40;71.40;;;;;;5053084;28;20056;-70
2023/04/09 01:29:30;;;;;;;1.00;0.82;;;18.40;71.40;;;;;;5036924;28;20029;-70
2023/04/09 01:31:56;;;;;;;0.60;0.60;;;18.40;72.40;;;;;;5020163;28;20083;-70
2023/04/09 01:34:21;;;;;;;1.27;0.68;;;18.40;71.50;;;;;;5020178;28;20037;-70
2023/04/09 01:36:52;;;;;;;1.45;0.45;;;18.40;71.40;;;;;;5036340;28;20099;-69
2023/04/09 01:39:18;;;;;;;0.65;0.65;;;18.40;71.40;;;;;;5036890;28;20103;-70
2023/04/09 01:41:43;;;;;;;0.60;0.60;;;18.40;71.50;;;;;;5036375;28;20150;-70
2023/04/09 01:44:09;;;;;;;0.60;0.60;;;18.40;71.50;;;;;;5020068;28;20026;-70
2023/04/09 01:46:35;;;;;;;0.63;0.52;;;18.40;71.50;;;;;;5036329;28;20029;-69
2023/04/09 01:49:00;;;;;;;0.50;0.50;;;18.40;71.50;;;;;;5034262;28;20105;-70
2023/04/09 01:51:26;;;;;;;0.75;0.55;;;18.30;71.50;;;;;;5017733;28;20033;-70
2023/04/09 01:53:52;;;;;;;0.68;0.60;;;18.40;71.70;;;;;;5033618;28;20399;-70
2023/04/09 01:56:18;;;;;;;0.75;0.70;;;18.30;71.70;;;;;;5033873;28;20458;-70
2023/04/09 01:58:43;;;;;;;1.95;0.88;;;18.30;71.60;;;;;;5033827;28;20566;-70
2023/04/09 02:01:23;;;;;;;1.20;0.63;;;18.30;71.70;;;;;;5035152;28;20036;-70
2023/04/09 02:04:01;;;;;;;0.82;0.70;;;18.30;71.70;;;;;;5033772;28;20064;-70
2023/04/09 02:06:39;;;;;;;0.50;0.50;;;18.30;71.80;;;;;;5033829;28;20033;-70
2023/04/09 02:09:07;;;;;;;0.60;0.50;;;18.30;71.70;;;;;;5033625;28;20029;-70
2023/04/09 02:11:33;;;;;;;0.57;0.55;;;18.30;71.70;;;;;;5033619;28;20029;-70
2023/04/09 02:13:58;;;;;;;2.63;0.60;;;18.30;71.70;;;;;;5033335;28;20026;-70
2023/04/09 02:16:24;;;;;;;0.43;0.43;;;18.30;71.80;;;;;;5033561;28;20450;-69
2023/04/09 02:18:54;;;;;;;2.13;0.75;;;18.30;71.80;;;;;;5033478;28;20576;-70
2023/04/09 02:21:25;;;;;;;3.05;0.60;;;18.30;71.80;;;;;;5033419;28;20021;-69
2023/04/09 02:23:51;;;;;;;0.50;0.50;;;18.30;71.90;;;;;;5034358;28;20029;-70
2023/04/09 02:26:17;;;;;;;0.80;0.70;;;18.20;71.80;;;;;;5034502;28;20029;-70
2023/04/09 02:28:42;;;;;;;0.73;0.60;;;18.20;71.90;;;;;;5034653;28;20036;-69
2023/04/09 02:31:08;;;;;;;0.73;0.50;;;18.20;71.90;;;;;;5034592;28;20033;-70
2023/04/09 02:33:34;;;;;;;0.60;0.60;;;18.20;71.90;;;;;;5033888;28;20025;-70
2023/04/09 02:35:59;;;;;;;1.13;0.63;;;18.20;71.90;;;;;;5034246;28;20025;-70
2023/04/09 02:38:25;;;;;;;0.73;0.63;;;18.20;72.00;;;;;;5034252;28;20100;-69
2023/04/09 02:40:50;;;;;;;0.60;0.60;;;18.20;72.00;;;;;;5033261;28;20029;-70
2023/04/09 02:43:16;;;;;;;0.80;0.50;;;18.20;72.10;;;;;;5034367;28;20059;-69
2023/04/09 02:45:42;;;;;;;1.05;0.60;;;18.20;72.20;;;;;;5033007;28;20393;-70
2023/04/09 02:48:07;;;;;;;0.90;0.80;;;18.20;72.30;;;;;;5034138;28;20107;-69
2023/04/09 02:50:33;;;;;;;0.63;0.63;;;18.20;72.20;;;;;;5034126;28;20498;-70
2023/04/09 02:52:58;;;;;;;0.68;0.60;;;18.20;72.20;;;;;;5033599;28;20025;-70
2023/04/09 02:55:24;;;;;;;1.10;0.70;;;18.20;72.30;;;;;;5033836;28;20067;-70
2023/04/09 02:57:50;;;;;;;0.50;0.50;;;18.10;72.20;;;;;;5033899;28;20101;-69
2023/04/09 03:00:15;;;;;;;0.70;0.70;;;18.20;72.30;;;;;;5032901;28;20040;-70
2023/04/09 03:02:41;;;;;;;0.82;0.70;;;18.20;72.30;;;;;;5032637;28;20491;-70
2023/04/09 03:05:07;;;;;;;0.77;0.77;;;18.10;72.30;;;;;;5033823;28;20029;-70
2023/04/09 03:07:32;;;;;;;0.70;0.70;;;18.10;72.40;;;;;;5033587;28;20026;-70
2023/04/09 03:09:58;;;;;;;1.25;0.60;;;18.10;72.40;;;;;;5033549;28;20100;-70
2023/04/09 03:12:24;;;;;;;0.63;0.60;;;18.10;72.40;;;;;;5033882;28;20476;-70
2023/04/09 03:14:49;;;;;;;1.15;0.77;;;18.20;72.50;;;;;;5033617;28;20037;-70
2023/04/09 03:17:15;;;;;;;0.75;0.70;;;18.10;72.60;;;;;;5033717;28;20041;-70
2023/04/09 03:19:40;;;;;;;0.70;0.70;;;18.10;72.70;;;;;;5033528;28;20446;-70
2023/04/09 03:22:06;;;;;;;0.50;0.50;;;18.10;72.60;;;;;;5033367;28;20048;-70
2023/04/09 03:24:32;;;;;;;1.83;0.80;;;18.10;72.70;;;;;;5033471;28;20036;-70
2023/04/09 03:26:58;;;;;;;0.70;0.70;;;18.10;72.80;;;;;;5032225;28;20014;-69
2023/04/09 03:29:23;;;;;;;0.65;0.65;;;18.10;72.80;;;;;;5033613;28;20391;-69
2023/04/09 03:31:49;;;;;;;0.70;0.52;;;18.10;72.80;;;;;;5033427;28;20045;-69
2023/04/09 03:34:15;;;;;;;0.93;0.47;;;18.10;72.90;;;;;;5033403;28;20026;-70
2023/04/09 03:36:40;;;;;;;0.82;0.70;;;18.10;72.80;;;;;;5032517;28;20164;-69
2023/04/09 03:39:06;;;;;;;0.55;0.55;;;18.10;73.00;;;;;;5033045;28;20083;-70
2023/04/09 03:41:32;;;;;;;0.57;0.50;;;18.10;72.90;;;;;;5033553;28;20103;-70
2023/04/09 03:43:57;;;;;;;0.88;0.70;;;18.10;72.90;;;;;;5033119;28;20476;-70
2023/04/09 03:46:24;;;;;;;0.63;0.50;;;18.00;72.90;;;;;;5033205;28;20025;-70
2023/04/09 03:48:49;;;;;;;0.70;0.70;;;18.10;73.00;;;;;;5033182;28;20029;-70
2023/04/09 03:51:15;;;;;;;0.50;0.50;;;18.00;73.00;;;;;;5032910;28;20032;-70
2023/04/09 03:53:41;;;;;;;1.98;0.60;;;18.00;72.90;;;;;;5032798;28;20076;-70
2023/04/09 03:56:08;;;;;;;0.95;0.80;;;18.00;73.00;;;;;;5033063;28;20099;-70
2023/04/09 03:58:34;;;;;;;0.90;0.50;;;18.00;73.00;;;;;;5031945;28;20025;-70
2023/04/09 04:00:59;;;;;;;0.50;0.50;;;18.10;73.10;;;;;;5031805;28;20029;-70
2023/04/09 04:03:25;;;;;;;0.95;0.70;;;18.00;73.00;;;;;;5031831;28;20048;-69
2023/04/09 04:05:51;;;;;;;0.60;0.60;;;18.10;73.10;;;;;;5032723;28;20468;-70
2023/04/09 04:08:16;;;;;;;0.50;0.50;;;18.00;73.00;;;;;;5031670;28;20468;-70
2023/04/09 04:10:42;;;;;;;0.75;0.60;;;18.00;73.10;;;;;;5031648;28;20038;-69
2023/04/09 04:13:07;;;;;;;0.90;0.60;;;18.00;73.10;;;;;;5032802;28;20488;-70
2023/04/09 04:15:42;;;;;;;0.50;0.50;;;18.00;73.10;;;;;;5032892;28;20039;-70
2023/04/09 04:18:09;;;;;;;0.50;0.50;;;18.00;73.00;;;;;;5032674;28;20063;-70
2023/04/09 04:20:35;;;;;;;0.65;0.65;;;18.00;73.10;;;;;;5031353;28;20025;-70
2023/04/09 04:23:01;;;;;;;1.50;0.63;;;18.00;73.10;;;;;;5031682;28;20515;-70
2023/04/09 04:25:26;;;;;;;0.63;0.63;;;18.00;73.10;;;;;;5031598;28;20021;-70
2023/04/09 04:27:53;;;;;;;1.67;0.57;;;18.00;73.20;;;;;;5032790;28;20021;-70
2023/04/09 04:30:20;;;;;;;1.40;0.60;;;18.00;73.20;;;;;;5031634;28;20096;-70
2023/04/09 04:32:46;;;;;;;0.63;0.63;;;17.90;73.20;;;;;;5032870;28;20091;-70
2023/04/09 04:35:11;;;;;;;4.35;0.70;;;17.90;73.20;;;;;;5031000;28;20468;-70
2023/04/09 04:37:37;;;;;;;0.60;0.60;;;18.00;73.40;;;;;;5032920;28;20014;-70
2023/04/09 04:40:04;;;;;;;2.00;0.50;;;17.90;73.40;;;;;;5032531;28;20435;-70
2023/04/09 04:42:29;;;;;;;0.50;0.50;;;18.00;73.30;;;;;;5031478;28;20013;-70
2023/04/09 04:44:55;;;;;;;1.02;0.70;;;18.00;73.30;;;;;;5032591;28;20025;-70
2023/04/09 04:47:21;;;;;;;0.60;0.60;;;17.90;73.20;;;;;;5032592;28;20056;-69
2023/04/09 04:49:46;;;;;;;0.75;0.50;;;18.00;73.30;;;;;;5034940;28;20033;-69
2023/04/09 04:52:12;;;;;;;0.60;0.60;;;18.00;73.40;;;;;;5036490;28;20040;-69
2023/04/09 04:54:38;;;;;;;1.45;0.63;;;17.90;73.30;;;;;;5036039;28;20041;-69
2023/04/09 04:57:03;;;;;;;0.98;0.70;;;18.00;73.40;;;;;;5036335;28;20033;-69
2023/04/09 04:59:29;;;;;;;1.45;0.60;;;17.90;73.30;;;;;;5036533;28;20026;-69
2023/04/09 05:01:55;;;;;;;0.88;0.70;;;17.90;73.30;;;;;;5035044;28;20018;-69
2023/04/09 05:04:20;;;;;;;0.50;0.50;;;17.90;73.40;;;;;;5035980;28;20021;-70
2023/04/09 05:06:46;;;;;;;0.50;0.47;;;17.90;73.40;;;;;;5035925;28;20360;-69
2023/04/09 05:09:11;;;;;;;0.55;0.55;;;17.90;73.40;;;;;;5036123;28;20115;-69
2023/04/09 05:11:37;;;;;;;0.77;0.70;;;17.90;73.40;;;;;;5036323;28;20163;-69
2023/04/09 05:14:04;;;;;;;0.52;0.52;;;17.90;73.40;;;;;;5036167;28;20034;-69
2023/04/09 05:16:30;;;;;;;1.75;0.70;;;17.90;73.40;;;;;;5036053;28;20017;-69
2023/04/09 05:18:56;;;;;;;0.70;0.70;;;17.80;73.30;;;;;;5035523;28;20025;-70
2023/04/09 05:21:22;;;;;;;0.82;0.50;;;17.90;73.40;;;;;;5034388;28;20022;-69
2023/04/09 05:23:47;;;;;;;0.60;0.60;;;17.90;73.50;;;;;;5034565;28;20033;-69
2023/04/09 05:26:13;;;;;;;0.47;0.45;;;17.90;73.70;;;;;;5035630;28;20470;-70
2023/04/09 05:28:38;;;;;;;1.35;0.70;;;17.90;73.70;;;;;;5035514;28;20040;-70
2023/04/09 05:31:06;;;;;;;1.10;0.60;;;17.80;73.60;;;;;;5035467;28;20024;-69
2023/04/09 05:33:36;;;;;;;1.10;0.80;;;17.80;73.70;;;;;;5035276;28;20026;-70
2023/04/09 05:36:02;;;;;;;0.68;0.50;;;17.80;73.70;;;;;;5035286;28;20484;-70
2023/04/09 05:38:27;;;;;;;4.82;0.65;;;17.90;73.90;;;;;;5035217;28;20113;-69
2023/04/09 05:40:53;;;;;;;2.28;0.70;;;17.80;73.80;;;;;;5035402;28;20422;-69
2023/04/09 05:43:19;;;;;;;0.43;0.43;;;17.80;73.80;;;;;;5035395;28;20507;-70
2023/04/09 05:45:45;;;;;;;1.00;0.60;;;17.80;73.90;;;;;;5035231;28;20052;-69
2023/04/09 05:48:10;;;;;;;0.50;0.50;;;17.80;73.90;;;;;;5034722;28;20057;-70
2023/04/09 05:50:36;;;;;;;0.70;0.60;;;17.80;74.00;;;;;;5035256;28;20231;-70
2023/04/09 05:53:02;;;;;;;0.45;0.45;;;17.80;74.00;;;;;;5035049;28;20128;-70
2023/04/09 05:55:28;;;;;;;0.60;0.60;;;17.80;73.90;;;;;;5033860;28;20116;-70
2023/04/09 05:57:53;;;;;;;0.40;0.40;;;17.80;74.00;;;;;;5033722;28;20032;-70
2023/04/09 06:00:20;;;;;;;1.13;0.60;;;17.80;74.00;;;;;;5034302;28;20101;-69
2023/04/09 06:02:46;;;;;;;0.50;0.50;;;17.80;74.00;;;;;;5034676;28;20028;-70
2023/04/09 06:05:11;;;;;;;1.13;0.63;;;17.80;74.00;;;;;;5034884;28;20022;-70
2023/04/09 06:07:37;;;;;;;0.50;0.50;;;17.80;74.10;;;;;;5033672;28;20052;-69
2023/04/09 06:10:03;;;;;;;0.50;0.50;;;17.80;74.10;;;;;;5034379;28;20499;-70
2023/04/09 06:12:28;;;;;;;0.68;0.68;;;17.80;74.20;;;;;;5034715;28;20026;-70
2023/04/09 06:14:54;;;;;;;1.13;0.50;;;17.80;74.20;;;;;;5034782;28;20038;-70
2023/04/09 06:17:19;;;;;;;2.63;0.60;;;17.80;74.00;;;;;;5034281;28;20036;-69
2023/04/09 06:19:45;;;;;;;2.42;0.60;;;17.80;73.90;;;;;;5034776;28;20025;-70
2023/04/09 06:22:11;;;;;;;0.57;0.57;;;17.70;73.90;;;;;;5033332;28;20025;-70
2023/04/09 06:24:36;;;;;;;0.82;0.70;;;17.70;74.00;;;;;;5033352;28;20025;-70
2023/04/09 06:27:02;;;;;;;0.80;0.80;;;17.80;74.10;;;;;;5034557;28;20018;-70
2023/04/09 06:29:28;;;;;;;2.15;0.80;;;17.70;74.00;;;;;;5034599;28;20025;-70
2023/04/09 06:31:54;;;;;;;0.80;0.70;;;17.70;74.20;;;;;;5034185;28;20026;-70
2023/04/09 06:34:19;;;;;;;1.77;0.70;;;17.70;74.20;;;;;;5034501;28;20028;-70
2023/04/09 06:36:45;;;;;;;0.80;0.70;;;17.70;74.10;;;;;;5033002;28;20080;-70
2023/04/09 06:39:11;;;;;;;0.60;0.60;;;17.70;74.20;;;;;;5034366;28;20025;-70
2023/04/09 06:41:36;;;;;;;0.60;0.60;;;17.70;74.20;;;;;;5034543;28;20021;-70
2023/04/09 06:44:02;;;;;;;1.00;0.70;;;17.70;74.20;;;;;;5034013;28;20080;-70
2023/04/09 06:46:27;;;;;;;0.60;0.60;;;17.70;74.20;;;;;;5033716;28;20099;-70
2023/04/09 06:48:53;;;;;;;1.50;0.60;;;17.70;74.20;;;;;;5034396;28;20518;-69
2023/04/09 06:51:19;;;;;;;0.55;0.50;;;17.70;74.20;;;;;;5033951;28;20045;-70
2023/04/09 06:53:46;;;;;;;0.50;0.50;;;17.70;74.20;;;;;;5033816;28;20120;-69
2023/04/09 06:56:12;;;;;;;0.65;0.65;;;17.70;74.20;;;;;;5033817;28;20025;-69
2023/04/09 06:58:38;;;;;;;0.88;0.80;;;17.70;74.20;;;;;;5032517;28;20128;-70
2023/04/09 07:01:03;;;;;;;0.82;0.55;;;17.70;74.40;;;;;;5033808;28;20025;-69
2023/04/09 07:03:29;;;;;;;0.57;0.57;;;17.70;74.30;;;;;;5032709;28;20149;-70
2023/04/09 07:05:56;;;;;;;0.50;0.50;;;17.70;74.30;;;;;;5032553;28;20037;-69
2023/04/09 07:08:22;;;;;;;0.68;0.68;;;17.70;74.40;;;;;;5033685;28;20024;-69
2023/04/09 07:10:48;;;;;;;0.75;0.70;;;17.70;74.40;;;;;;5032103;28;20384;-69
2023/04/09 07:13:13;;;;;;;0.90;0.60;;;17.70;74.40;;;;;;5032941;28;20055;-69
2023/04/09 07:15:39;;;;;;;0.93;0.85;;;17.70;74.40;;;;;;5032344;28;20025;-69
2023/04/09 07:18:05;;;;;;;0.60;0.60;;;17.70;74.40;;;;;;5032314;28;20020;-69
2023/04/09 07:20:30;;;;;;;1.30;0.52;;;17.70;74.40;;;;;;5032383;28;20063;-70
2023/04/09 07:22:56;;;;;;;0.55;0.52;;;17.70;74.40;;;;;;5033478;28;20062;-70
2023/04/09 07:25:22;;;;;;;0.50;0.50;;;17.70;74.40;;;;;;5033190;28;20033;-70
2023/04/09 07:27:48;;;;;;;0.63;0.63;;;17.70;74.40;;;;;;5031766;28;20083;-70
2023/04/09 07:30:14;;;;;;;1.70;0.40;;;17.70;74.40;;;;;;5032660;28;20075;-70
2023/04/09 07:32:39;;;;;;;0.68;0.50;;;17.70;74.40;;;;;;5032816;28;20022;-69
2023/04/09 07:35:06;;;;;;;0.73;0.70;;;17.70;74.40;;;;;;5032806;28;20029;-70
2023/04/09 07:37:32;;;;;;;0.63;0.60;;;17.60;74.30;;;;;;5031561;28;20025;-70
2023/04/09 07:39:57;;;;;;;0.70;0.70;;;17.60;74.30;;;;;;5032709;28;20029;-70
2023/04/09 07:42:23;;;;;;;2.58;0.52;;;17.60;74.30;;;;;;5031282;28;20017;-70
2023/04/09 07:44:49;;;;;;;0.52;0.50;;;17.60;74.30;;;;;;5031590;28;20514;-70
2023/04/09 07:47:14;;;;;;;0.45;0.45;;;17.60;74.30;;;;;;5032143;28;20038;-69
2023/04/09 07:49:40;;;;;;;0.57;0.57;;;17.60;74.30;;;;;;5031419;28;20032;-70
2023/04/09 07:52:06;;;;;;;1.40;0.63;;;17.60;74.40;;;;;;5032549;28;20076;-70
2023/04/09 07:54:32;;;;;;;0.40;0.40;;;17.60;74.40;;;;;;5030940;28;20046;-70
2023/04/09 07:56:58;;;;;;;0.50;0.50;;;17.60;74.50;;;;;;5014939;28;20068;-70
2023/04/09 07:59:23;;;;;;;0.63;0.63;;;17.60;74.40;;;;;;5031113;28;20025;-70
2023/04/09 08:01:49;;;;;;;0.50;0.50;;;17.60;74.40;;;;;;5032350;28;20391;-70
2023/04/09 08:04:15;;;;;;;0.50;0.50;;;17.60;74.40;;;;;;5032386;28;20461;-69
2023/04/09 08:06:40;;;;;;;0.52;0.52;;;17.60;74.50;;;;;;5031261;28;20029;-69
2023/04/09 08:09:06;;;;;;;0.50;0.50;;;17.60;74.50;;;;;;5032369;28;20033;-69
2023/04/09 08:11:32;;;;;;;0.60;0.60;;;17.60;74.50;;;;;;5031984;28;20018;-70
2023/04/09 08:14:00;;;;;;;0.50;0.50;;;17.60;74.50;;;;;;5014520;28;20037;-69
2023/04/09 08:16:26;;;;;;;0.55;0.45;;;17.60;74.60;;;;;;5030972;28;20075;-70
2023/04/09 08:18:52;;;;;;;1.73;0.70;;;17.60;74.50;;;;;;5031177;28;20105;-70
2023/04/09 08:21:18;;;;;;;0.82;0.50;;;17.60;74.50;;;;;;5031034;28;20025;-69
2023/04/09 08:23:44;;;;;;;2.38;0.65;;;17.60;74.50;;;;;;5016995;28;20033;-69
2023/04/09 08:26:09;;;;;;;1.60;0.77;;;17.60;74.50;;;;;;5036109;28;20569;-69
2023/04/09 08:28:35;;;;;;;0.75;0.70;;;17.60;74.60;;;;;;5036264;28;20496;-69
2023/04/09 08:31:01;;;;;;;1.35;0.50;;;17.60;74.60;;;;;;5035064;28;20083;-70
2023/04/09 08:33:26;;;;;;;0.93;0.60;;;17.60;74.60;;;;;;5036093;28;20041;-69
2023/04/09 08:35:52;;;;;;;2.38;0.60;;;17.60;74.60;;;;;;5036050;28;20049;-69
2023/04/09 08:38:18;;;;;;;0.40;0.40;;;17.60;74.60;;;;;;5036146;28;20039;-70
2023/04/09 08:40:44;;;;;;;0.47;0.47;;;17.60;74.70;;;;;;5035851;28;20420;-69
2023/04/09 08:43:09;;;;;;;2.28;0.60;;;17.60;74.60;;;;;;5034719;28;20121;-69
2023/04/09 08:45:35;;;;;;;0.50;0.50;;;17.60;74.70;;;;;;5018304;28;20032;-69
2023/04/09 08:48:02;;;;;;;1.23;0.52;;;17.60;74.60;;;;;;5035860;28;20038;-69
2023/04/09 08:50:32;;;;;;;0.60;0.60;;;17.60;74.60;;;;;;5034633;28;20045;-69
2023/04/09 08:52:58;;;;;;;0.52;0.52;;;17.60;74.60;;;;;;5034696;28;20022;-70
2023/04/09 08:55:24;;;;;;;1.67;0.60;;;17.60;74.50;;;;;;5034157;28;20376;-69
2023/04/09 08:57:49;;;;;;;0.90;0.50;;;17.60;74.60;;;;;;5034620;28;20021;-69
2023/04/09 09:00:15;;;;;;;1.40;0.43;;;17.60;74.60;;;;;;5035522;28;20025;-70
2023/04/09 09:03:09;;;;;;;0.45;0.45;;;17.60;74.70;;;;;;5034483;28;20030;-70
2023/04/09 09:05:39;;;;;;;0.50;0.50;;;17.50;74.70;;;;;;5035689;28;20140;-70
2023/04/09 09:08:09;;;;;;;0.57;0.55;;;17.50;74.70;;;;;;5034420;28;20033;-69
2023/04/09 09:10:42;;;;;;;0.40;0.40;;;17.50;74.70;;;;;;5033868;28;20056;-70
2023/04/09 09:13:17;;;;;;;0.50;0.50;;;17.60;74.80;;;;;;5035457;28;20097;-69
2023/04/09 09:15:45;;;;;;;0.85;0.50;;;17.60;74.70;;;;;;5034152;28;20022;-69
2023/04/09 09:18:10;;;;;;;0.52;0.40;;;17.50;74.70;;;;;;5034304;28;20025;-69
2023/04/09 09:20:36;;;;;;;0.63;0.63;;;17.50;74.70;;;;;;5035172;28;20384;-69
2023/04/09 09:23:02;;;;;;;0.65;0.52;;;17.50;74.80;;;;;;5017694;28;20045;-70
2023/04/09 09:25:29;;;;;;;0.50;0.50;;;17.50;74.70;;;;;;5034927;28;20064;-69
2023/04/09 09:27:55;;;;;;;0.90;0.63;;;17.60;74.80;;;;;;5035294;28;20026;-69
2023/04/09 09:30:25;;;;;;;1.58;0.50;;;17.50;74.70;;;;;;5017611;28;20120;-69
2023/04/09 09:32:52;;;;;;;0.50;0.50;;;17.50;74.80;;;;;;5017336;28;20057;-70
2023/04/09 09:35:18;;;;;;;0.50;0.50;;;17.50;74.80;;;;;;5032526;28;20026;-69
2023/04/09 09:37:44;;;;;;;0.40;0.40;;;17.50;74.70;;;;;;5033771;28;20063;-70
2023/04/09 09:40:10;;;;;;;0.68;0.50;;;17.50;74.80;;;;;;5034810;28;20487;-70
2023/04/09 09:42:36;;;;;;;1.50;0.60;;;17.50;74.80;;;;;;5033385;28;20033;-70
2023/04/09 09:45:04;;;;;;;0.50;0.50;;;17.50;74.80;;;;;;5034965;28;20033;-69
2023/04/09 09:47:30;;;;;;;0.43;0.40;;;17.50;74.80;;;;;;5017220;28;20112;-70
2023/04/09 09:49:56;;;;;;;0.55;0.50;;;17.60;74.90;;;;;;5033551;28;20096;-69
2023/04/09 09:52:27;;;;;;;0.80;0.80;;;17.50;74.80;;;;;;5034767;28;20055;-69
2023/04/09 09:54:52;;;;;;;0.50;0.50;;;17.50;74.90;;;;;;5033220;28;20132;-70
2023/04/09 09:57:19;;;;;;;0.50;0.50;;;17.50;74.90;;;;;;5016999;28;20105;-70
2023/04/09 09:59:57;;;;;;;0.57;0.57;;;17.50;74.90;;;;;;5016885;28;20030;-70
2023/04/09 10:02:23;;;;;;;0.50;0.50;;;17.50;74.80;;;;;;5017338;28;20032;-69
2023/04/09 10:04:52;;;;;;;0.70;0.70;;;17.50;74.90;;;;;;5034615;28;20021;-69
2023/04/09 10:07:19;;;;;;;0.57;0.57;;;17.50;74.90;;;;;;5034555;28;20025;-70
2023/04/09 10:09:46;;;;;;;0.50;0.50;;;17.50;74.90;;;;;;5016640;28;20018;-69
2023/04/09 10:12:12;;;;;;;0.40;0.40;;;17.50;74.90;;;;;;5034417;28;20147;-70
2023/04/09 10:14:38;;;;;;;0.50;0.50;;;17.50;74.90;;;;;;5016462;28;20455;-69
2023/04/09 10:17:04;;;;;;;1.20;0.60;;;17.50;74.50;;;;;;5016792;28;20079;-69
2023/04/09 10:19:30;;;;;;;0.52;0.52;;;17.50;73.50;;;;;;5033045;28;20021;-68
2023/04/09 10:22:10;;;;;;;0.50;0.40;;;17.50;73.10;;;;;;5032834;28;20064;-70
2023/04/09 10:24:35;;;;;;;0.57;0.50;;;17.50;72.50;;;;;;5033022;28;20014;-70
2023/04/09 10:27:11;;;;;;;1.02;0.60;;;17.50;72.00;;;;;;5016631;28;20025;-69
2023/04/09 10:29:47;;;;;;;0.60;0.60;;;17.50;71.60;;;;;;5031874;28;20106;-73
2023/04/09 10:32:22;;;;;;;1.35;0.50;;;17.60;71.70;;;;;;5041272;28;20057;-72
2023/04/09 10:34:49;;;;;;;0.43;0.43;;;17.70;71.50;;;;;;5042386;28;20454;-72
2023/04/09 10:37:24;;;;;;;0.50;0.50;;;17.80;71.30;;;;;;5052587;28;20021;-72
2023/04/09 10:39:51;;;;;;;0.65;0.40;;;17.80;71.20;;;;;;5037361;28;20049;-72
2023/04/09 10:42:31;;;;;;;0.50;0.50;;;17.80;71.20;;;;;;5032798;28;20100;-72
2023/04/09 10:45:10;;;;;;;0.60;0.50;;;17.90;71.20;;;;;;5017849;28;20017;-71
2023/04/09 10:47:41;;;;;;;0.40;0.40;;;18.00;71.10;;;;;;5043280;28;20033;-72
2023/04/09 10:50:18;;;;;;;0.40;0.40;;;18.00;71.00;;;;;;5052764;28;20502;-71
2023/04/09 10:52:43;;;;;;;0.60;0.60;;;18.00;70.90;;;;;;5052091;28;20032;-71
2023/04/09 10:55:28;;;;;;;0.73;0.50;;;18.00;70.70;;;;;;5039811;28;20064;-72
2023/04/09 10:57:54;;;;;;;0.50;0.50;;;18.10;70.60;;;;;;5032375;28;20104;-72
2023/04/09 11:00:19;;;;;;;1.88;0.52;;;18.20;70.60;;;;;;5032527;28;20101;-72
2023/04/09 11:03:16;;;;;;;0.55;0.55;;;18.20;70.60;;;;;;5033385;28;20033;-71
2023/04/09 11:05:41;;;;;;;1.38;0.45;;;18.20;70.50;;;;;;5051215;28;20017;-71
2023/04/09 11:08:13;;;;;;;1.20;0.40;;;18.30;70.40;;;;;;5052306;28;20047;-72
2023/04/09 11:10:40;;;;;;;0.88;0.32;;;18.30;70.30;;;;;;5053204;28;20028;-72
2023/04/09 11:13:08;;;;;;;0.60;0.60;;;18.40;70.20;;;;;;5053020;28;20017;-71
2023/04/09 11:15:35;;;;;;;1.00;0.47;;;18.40;70.20;;;;;;5051797;28;20387;-71
2023/04/09 11:18:01;;;;;;;0.50;0.50;;;18.40;70.10;;;;;;5052069;28;20047;-71
2023/04/09 11:20:26;;;;;;;0.57;0.55;;;18.40;70.00;;;;;;5051790;28;20021;-71
2023/04/09 11:22:53;;;;;;;0.40;0.40;;;18.50;70.00;;;;;;5051895;28;20100;-71
2023/04/09 11:25:30;;;;;;;1.50;0.50;;;18.50;70.10;;;;;;5051747;28;20029;-71
2023/04/09 11:27:55;;;;;;;0.38;0.38;;;18.50;70.00;;;;;;5051571;28;20052;-71
2023/04/09 11:30:21;;;;;;;0.50;0.50;;;18.50;69.80;;;;;;5053036;28;20053;-71
2023/04/09 11:32:47;;;;;;;0.40;0.40;;;18.60;69.70;;;;;;5051651;28;20048;-71
2023/04/09 11:35:17;;;;;;;0.43;0.43;;;18.60;69.70;;;;;;5051430;28;20499;-75
2023/04/09 11:37:43;;;;;;;0.30;0.30;;;18.60;69.70;;;;;;5050482;28;20021;-75
2023/04/09 11:40:18;;;;;;;1.08;0.40;;;18.60;69.70;;;;;;5015262;28;20048;-75
2023/04/09 11:42:44;;;;;;;0.40;0.40;;;18.70;69.70;;;;;;5032751;28;20484;-75
2023/04/09 11:45:11;;;;;;;0.60;0.60;;;18.70;69.70;;;;;;5032794;28;20086;-74
2023/04/09 11:47:37;;;;;;;0.40;0.40;;;18.70;69.60;;;;;;5032573;28;20079;-75
2023/04/09 11:50:05;;;;;;;0.43;0.43;;;18.80;69.60;;;;;;5031251;28;20025;-75
2023/04/09 11:52:34;;;;;;;1.27;0.50;;;18.70;69.50;;;;;;5031545;28;20515;-74
2023/04/09 11:55:00;;;;;;;0.40;0.40;;;18.70;69.50;;;;;;5032321;28;20041;-73
2023/04/09 11:57:41;;;;;;;0.63;0.50;;;18.80;69.40;;;;;;5032114;28;20049;-73
2023/04/09 12:00:15;;;;;;;0.40;0.40;;;18.80;69.50;;;;;;5032657;28;20022;-73
2023/04/09 12:02:45;;;;;;;0.43;0.43;;;18.80;69.40;;;;;;5015063;28;20060;-74
2023/04/09 12:05:12;;;;;;;0.43;0.43;;;18.80;69.30;;;;;;5014718;28;20029;-74
2023/04/09 12:07:38;;;;;;;1.65;0.40;;;18.90;69.50;;;;;;5031226;28;20040;-73
2023/04/09 12:10:05;;;;;;;0.40;0.40;;;18.90;69.50;;;;;;5031282;28;20393;-74
2023/04/09 12:12:41;;;;;;;1.23;0.43;;;18.90;69.40;;;;;;5032453;28;20109;-73
2023/04/09 12:15:26;;;;;;;1.10;0.95;;;18.90;69.50;;;;;;5030924;28;20377;-74
2023/04/09 12:17:54;;;;;;;0.38;0.32;;;18.90;69.20;;;;;;5031111;28;20022;-73
2023/04/09 12:20:34;;;;;;;0.30;0.30;;;18.90;69.30;;;;;;5014844;28;20025;-74
2023/04/09 12:23:02;;;;;;;0.35;0.35;;;19.00;69.20;;;;;;5031191;28;20484;-72
2023/04/09 12:25:28;;;;;;;0.32;0.30;;;18.90;69.20;;;;;;5014921;28;20148;-71
2023/04/09 12:27:54;;;;;;;0.40;0.40;;;19.00;69.20;;;;;;5032021;28;20029;-72
2023/04/09 12:30:20;;;;;;;0.40;0.40;;;19.00;69.10;;;;;;5032276;28;20034;-71
2023/04/09 12:32:46;;;;;;;0.50;0.50;;;19.10;69.00;;;;;;5032157;28;20021;-72
2023/04/09 12:35:12;;;;;;;0.30;0.30;;;19.10;69.10;;;;;;5031028;28;20032;-72
2023/04/09 12:37:38;;;;;;;0.40;0.40;;;19.10;69.10;;;;;;5031368;28;20045;-72
2023/04/09 12:40:05;;;;;;;0.50;0.50;;;19.10;69.00;;;;;;5051980;28;20099;-73
2023/04/09 12:42:30;;;;;;;0.40;0.40;;;19.10;69.00;;;;;;5052126;28;20021;-73
2023/04/09 12:44:56;;;;;;;0.30;0.30;;;19.10;69.10;;;;;;5052545;28;20495;-74
2023/04/09 12:47:22;;;;;;;0.40;0.40;;;19.10;69.20;;;;;;5039394;28;20025;-73
2023/04/09 12:49:49;;;;;;;0.43;0.40;;;19.10;69.10;;;;;;5032062;28;20025;-73